createdAt,value
2018-06-17T00:04:17.320Z,20.76
2018-06-17T00:09:20.371Z,20.78
2018-06-17T00:14:23.490Z,20.82
2018-06-17T00:19:26.528Z,20.69
2018-06-17T00:24:29.618Z,20.58
2018-06-17T00:29:32.721Z,20.55
2018-06-17T00:34:35.845Z,20.52
2018-06-17T00:39:39.015Z,20.50
2018-06-17T00:44:42.031Z,20.53
2018-06-17T00:49:45.070Z,20.43
2018-06-17T00:54:48.114Z,20.27
2018-06-17T00:59:51.165Z,20.10
2018-06-17T01:04:54.370Z,20.00
2018-06-17T01:09:57.947Z,19.94
2018-06-17T01:15:01.014Z,19.87
2018-06-17T01:20:04.833Z,19.87
2018-06-17T01:25:16.852Z,19.93
2018-06-17T01:30:19.984Z,19.96
2018-06-17T01:35:23.050Z,19.87
2018-06-17T01:40:26.187Z,19.72
2018-06-17T01:45:29.273Z,19.59
2018-06-17T01:50:32.313Z,19.50
2018-06-17T01:55:35.465Z,19.48
2018-06-17T02:00:38.607Z,19.33
2018-06-17T02:05:47.358Z,18.78
2018-06-17T02:10:56.086Z,19.32
2018-06-17T02:15:59.249Z,19.33
2018-06-17T02:21:02.409Z,19.41
2018-06-17T02:26:05.433Z,19.46
2018-06-17T02:31:08.578Z,19.02
2018-06-17T02:36:11.662Z,19.45
2018-06-17T02:41:14.734Z,19.41
2018-06-17T02:46:23.402Z,19.33
2018-06-17T02:51:32.011Z,19.27
2018-06-17T02:56:35.104Z,19.27
2018-06-17T03:01:38.150Z,19.27
2018-06-17T03:06:41.574Z,19.26
2018-06-17T03:11:44.898Z,19.23
2018-06-17T03:16:47.955Z,19.23
2018-06-17T03:21:51.305Z,19.23
2018-06-17T03:27:00.150Z,19.24
2018-06-17T03:32:08.933Z,19.15
2018-06-17T03:37:11.981Z,19.22
2018-06-17T03:42:15.052Z,19.33
2018-06-17T03:47:18.140Z,19.42
2018-06-17T03:52:21.143Z,19.54
2018-06-17T03:57:24.197Z,19.66
2018-06-17T04:02:27.376Z,19.72
2018-06-17T04:07:30.565Z,19.79
2018-06-17T04:12:33.771Z,19.87
2018-06-17T04:17:36.825Z,19.98
2018-06-17T04:22:39.902Z,19.98
2018-06-17T04:27:42.977Z,20.00
2018-06-17T04:32:46.116Z,20.01
2018-06-17T04:37:49.182Z,20.02
2018-06-17T04:42:52.250Z,19.99
2018-06-17T04:47:55.291Z,19.97
2018-06-17T04:52:58.383Z,20.02
2018-06-17T04:58:06.718Z,20.17
2018-06-17T05:03:09.918Z,20.27
2018-06-17T05:08:13.135Z,20.91
2018-06-17T05:13:16.735Z,21.36
2018-06-17T05:18:19.769Z,21.49
2018-06-17T05:23:22.794Z,21.29
2018-06-17T05:28:25.871Z,21.94
2018-06-17T05:33:28.909Z,22.36
2018-06-17T05:38:32.074Z,22.13
2018-06-17T05:43:35.199Z,21.79
2018-06-17T05:48:38.218Z,21.56
2018-06-17T05:53:41.287Z,21.59
2018-06-17T05:58:44.274Z,21.65
2018-06-17T06:03:47.295Z,21.67
2018-06-17T06:08:50.321Z,21.74
2018-06-17T06:13:53.370Z,21.73
2018-06-17T06:18:56.401Z,21.76
2018-06-17T06:23:59.426Z,21.78
2018-06-17T06:29:02.653Z,21.76
2018-06-17T06:34:05.674Z,21.87
2018-06-17T06:39:10.017Z,22.00
2018-06-17T06:44:13.038Z,22.10
2018-06-17T06:49:16.050Z,22.14
2018-06-17T06:54:19.043Z,22.33
2018-06-17T06:59:22.057Z,22.39
2018-06-17T07:04:42.361Z,22.47
2018-06-17T07:10:02.903Z,22.76
2018-06-17T07:15:06.207Z,23.01
2018-06-17T07:20:09.351Z,23.38
2018-06-17T07:25:22.453Z,23.62
2018-06-17T07:30:25.462Z,23.55
2018-06-17T07:35:28.787Z,23.39
2018-06-17T07:40:49.223Z,23.37
2018-06-17T07:45:52.363Z,23.26
2018-06-17T07:51:12.337Z,23.40
2018-06-17T07:56:15.469Z,23.50
2018-06-17T08:01:18.511Z,23.58
2018-06-17T08:06:21.570Z,23.76
2018-06-17T08:11:24.590Z,24.12
2018-06-17T08:16:27.662Z,24.44
2018-06-17T08:21:30.869Z,24.56
2018-06-17T08:26:34.106Z,24.52
2018-06-17T08:31:37.241Z,24.67
2018-06-17T08:36:40.873Z,24.93
2018-06-17T08:41:43.913Z,24.91
2018-06-17T08:46:47.803Z,25.24
2018-06-17T08:51:50.865Z,24.97
2018-06-17T08:56:53.896Z,25.00
2018-06-17T09:01:57.063Z,25.09
2018-06-17T09:07:00.098Z,25.16
2018-06-17T09:12:03.146Z,25.05
2018-06-17T09:17:06.193Z,25.17
2018-06-17T09:22:09.226Z,25.48
2018-06-17T09:27:12.246Z,25.32
2018-06-17T09:32:15.402Z,25.22
2018-06-17T09:37:18.409Z,25.12
2018-06-17T09:42:21.434Z,25.20
2018-06-17T09:47:24.479Z,25.75
2018-06-17T09:52:27.495Z,25.41
2018-06-17T09:57:30.506Z,25.57
2018-06-17T10:02:33.594Z,25.78
2018-06-17T10:07:36.617Z,26.10
2018-06-17T10:12:39.647Z,26.07
2018-06-17T10:17:42.702Z,26.28
2018-06-17T10:22:45.838Z,26.47
2018-06-17T10:27:49.044Z,26.84
2018-06-17T10:32:53.855Z,26.89
2018-06-17T10:37:57.288Z,26.68
2018-06-17T10:43:00.285Z,26.53
2018-06-17T10:48:03.742Z,26.91
2018-06-17T10:53:07.071Z,27.09
2018-06-17T10:58:10.179Z,26.92
2018-06-17T11:03:13.224Z,27.13
2018-06-17T11:08:16.394Z,26.67
2018-06-17T11:13:19.520Z,27.06
2018-06-17T11:18:22.534Z,27.04
2018-06-17T11:23:25.770Z,27.39
2018-06-17T11:28:28.765Z,27.46
2018-06-17T11:33:31.832Z,27.50
2018-06-17T11:38:34.889Z,27.35
2018-06-17T11:43:37.889Z,27.52
2018-06-17T11:48:40.945Z,27.87
2018-06-17T11:53:43.990Z,28.06
2018-06-17T11:58:47.121Z,27.79
2018-06-17T12:03:50.173Z,28.23
2018-06-17T12:08:53.329Z,28.37
2018-06-17T12:13:56.371Z,28.02
2018-06-17T12:18:59.558Z,27.94
2018-06-17T12:24:02.610Z,28.27
2018-06-17T12:29:05.746Z,28.39
2018-06-17T12:34:08.808Z,28.19
2018-06-17T12:39:12.927Z,28.23
2018-06-17T12:44:15.949Z,28.60
2018-06-17T12:49:19.167Z,28.90
2018-06-17T12:54:22.212Z,28.96
2018-06-17T12:59:25.271Z,28.26
2018-06-17T13:04:28.403Z,28.09
2018-06-17T13:09:31.424Z,28.51
2018-06-17T13:14:34.515Z,28.90
2018-06-17T13:19:37.538Z,28.90
2018-06-17T13:24:40.575Z,28.75
2018-06-17T13:29:43.685Z,28.16
2018-06-17T13:34:46.769Z,27.54
2018-06-17T13:39:49.803Z,27.27
2018-06-17T13:44:52.834Z,27.47
2018-06-17T13:49:55.883Z,27.68
2018-06-17T13:54:58.886Z,27.43
2018-06-17T14:00:01.942Z,27.00
2018-06-17T14:05:05.254Z,26.60
2018-06-17T14:10:08.261Z,26.40
2018-06-17T14:15:11.270Z,26.66
2018-06-17T14:20:14.337Z,26.81
2018-06-17T14:25:17.393Z,27.17
2018-06-17T14:30:20.461Z,27.27
2018-06-17T14:35:23.475Z,27.08
2018-06-17T14:40:26.511Z,27.04
2018-06-17T14:46:38.750Z,27.09
2018-06-17T14:51:48.839Z,27.06
2018-06-17T14:56:51.861Z,27.82
2018-06-17T15:01:54.998Z,28.32
2018-06-17T15:06:58.071Z,28.45
2018-06-17T15:12:01.884Z,28.33
2018-06-17T15:17:05.141Z,27.95
2018-06-17T15:22:08.186Z,27.71
2018-06-17T15:27:11.262Z,27.48
2018-06-17T15:32:19.891Z,27.08
2018-06-17T15:37:28.677Z,26.79
2018-06-17T15:42:31.734Z,26.68
2018-06-17T15:47:34.805Z,26.61
2018-06-17T15:52:37.849Z,26.56
2018-06-17T15:57:40.849Z,26.59
2018-06-17T16:02:43.894Z,26.58
2018-06-17T16:07:47.032Z,26.56
2018-06-17T16:12:55.631Z,26.70
2018-06-17T16:19:05.003Z,26.93
2018-06-17T16:24:08.033Z,27.02
2018-06-17T16:29:11.197Z,27.24
2018-06-17T16:34:14.203Z,27.13
2018-06-17T16:39:17.181Z,27.18
2018-06-17T16:44:20.211Z,27.06
2018-06-17T16:49:23.350Z,26.84
2018-06-17T16:54:33.117Z,26.69
2018-06-17T17:00:41.357Z,26.72
2018-06-17T17:05:44.419Z,26.35
2018-06-17T17:10:47.414Z,26.17
2018-06-17T17:15:50.407Z,26.06
2018-06-17T17:20:53.418Z,25.93
2018-06-17T17:25:56.780Z,25.96
2018-06-17T17:31:00.139Z,25.78
2018-06-17T17:36:08.877Z,25.53
2018-06-17T17:41:11.910Z,25.33
2018-06-17T17:46:20.554Z,25.40
2018-06-17T17:51:23.599Z,25.34
2018-06-17T17:56:26.823Z,25.11
2018-06-17T18:01:29.833Z,25.13
2018-06-17T18:06:32.834Z,24.94
2018-06-17T18:11:35.867Z,24.82
2018-06-17T18:16:38.969Z,24.72
2018-06-17T18:21:42.260Z,24.60
2018-06-17T18:26:51.733Z,24.52
2018-06-17T18:32:00.427Z,24.37
2018-06-17T18:37:03.501Z,24.22
2018-06-17T18:42:06.590Z,24.02
2018-06-17T18:47:09.865Z,23.84
2018-06-17T18:52:13.120Z,23.77
2018-06-17T18:57:16.230Z,23.63
2018-06-17T19:02:19.558Z,23.52
2018-06-17T19:07:23.359Z,23.43
2018-06-17T19:12:32.427Z,23.37
2018-06-17T19:17:41.137Z,23.33
2018-06-17T19:22:44.115Z,23.27
2018-06-17T19:27:47.125Z,23.24
2018-06-17T19:32:50.241Z,23.20
2018-06-17T19:37:53.372Z,23.13
2018-06-17T19:42:56.381Z,23.02
2018-06-17T19:47:59.598Z,22.99
2018-06-17T19:53:08.316Z,22.91
2018-06-17T19:58:17.037Z,22.82
2018-06-17T20:03:20.103Z,22.72
2018-06-17T20:08:23.331Z,22.67
2018-06-17T20:13:26.506Z,22.64
2018-06-17T20:18:29.570Z,22.61
2018-06-17T20:23:32.702Z,22.46
2018-06-17T20:28:36.089Z,22.34
2018-06-17T20:33:44.934Z,22.26
2018-06-17T20:38:53.825Z,22.18
2018-06-17T20:43:57.058Z,22.07
2018-06-17T20:49:00.775Z,21.99
2018-06-17T20:54:03.921Z,21.90
2018-06-17T20:59:07.120Z,21.76
2018-06-17T21:04:10.268Z,21.62
2018-06-17T21:09:13.273Z,21.48
2018-06-17T21:14:16.325Z,21.36
2018-06-17T21:19:24.883Z,21.29
2018-06-17T21:24:33.585Z,21.18
2018-06-17T21:29:36.619Z,21.02
2018-06-17T21:34:39.657Z,21.01
2018-06-17T21:39:42.772Z,20.97
2018-06-17T21:44:45.870Z,20.83
2018-06-17T21:49:48.931Z,20.79
2018-06-17T21:54:52.159Z,20.70
2018-06-17T21:59:55.585Z,20.57
2018-06-17T22:04:58.578Z,20.54
2018-06-17T22:10:07.316Z,20.50
2018-06-17T22:15:16.162Z,20.42
2018-06-17T22:20:19.442Z,20.23
2018-06-17T22:25:25.794Z,20.23
2018-06-17T22:30:28.863Z,20.27
2018-06-17T22:35:32.034Z,20.31
2018-06-17T22:40:35.094Z,20.36
2018-06-17T22:45:38.134Z,20.39
2018-06-17T22:50:41.243Z,20.44
2018-06-17T22:55:44.306Z,20.47
2018-06-17T23:00:52.908Z,20.47
2018-06-17T23:06:01.458Z,20.41
2018-06-17T23:11:04.545Z,20.39
2018-06-17T23:16:07.594Z,20.38
2018-06-17T23:21:10.617Z,20.38
2018-06-17T23:26:13.991Z,20.40
2018-06-17T23:31:17.083Z,20.42
2018-06-17T23:36:20.166Z,20.45
2018-06-17T23:41:23.281Z,20.45
2018-06-17T23:46:31.871Z,20.44
2018-06-17T23:51:40.485Z,20.44
2018-06-17T23:56:43.716Z,20.40
